createdAt,value
2019-05-30T00:00:07.718Z,3.20
2019-05-30T00:02:24.916Z,3.08
2019-05-30T00:04:56.053Z,4.65
2019-05-30T00:07:28.041Z,3.05
2019-05-30T00:09:58.427Z,3.15
2019-05-30T00:12:30.829Z,3.35
2019-05-30T00:15:04.692Z,4.78
2019-05-30T00:17:33.014Z,3.55
2019-05-30T00:20:03.545Z,3.55
2019-05-30T00:22:34.788Z,2.98
2019-05-30T00:25:08.988Z,3.20
2019-05-30T00:27:39.167Z,2.50
2019-05-30T00:30:23.978Z,3.15
2019-05-30T00:32:42.383Z,3.45
2019-05-30T00:35:12.665Z,3.20
2019-05-30T00:37:42.877Z,3.45
2019-05-30T00:40:13.192Z,3.22
2019-05-30T00:42:43.464Z,3.40
2019-05-30T00:45:20.977Z,2.70
2019-05-30T00:47:47.600Z,3.30
2019-05-30T00:50:18.023Z,3.90
2019-05-30T00:52:50.255Z,3.02
2019-05-30T00:55:20.486Z,3.00
2019-05-30T00:57:50.594Z,3.22
2019-05-30T01:00:43.968Z,3.55
2019-05-30T01:03:12.257Z,3.05
2019-05-30T01:05:42.384Z,3.40
2019-05-30T01:08:12.575Z,2.95
2019-05-30T01:10:42.832Z,2.92
2019-05-30T01:13:12.949Z,3.30
2019-05-30T01:15:43.126Z,2.83
2019-05-30T01:18:13.558Z,4.05
2019-05-30T01:20:45.976Z,3.37
2019-05-30T01:23:16.356Z,2.70
2019-05-30T01:25:46.447Z,2.80
2019-05-30T01:28:18.492Z,3.12
2019-05-30T01:30:59.605Z,3.42
2019-05-30T01:33:22.334Z,2.45
2019-05-30T01:35:53.147Z,3.25
2019-05-30T01:38:23.245Z,3.30
2019-05-30T01:40:54.626Z,3.08
2019-05-30T01:43:29.001Z,3.62
2019-05-30T01:46:02.129Z,3.67
2019-05-30T01:48:34.773Z,3.15
2019-05-30T01:51:04.861Z,3.92
2019-05-30T01:53:35.146Z,3.58
2019-05-30T01:56:05.311Z,3.15
2019-05-30T01:58:35.379Z,2.90
2019-05-30T02:01:23.744Z,3.60
2019-05-30T02:03:43.070Z,3.17
2019-05-30T02:06:15.218Z,2.60
2019-05-30T02:08:46.160Z,3.08
2019-05-30T02:11:17.453Z,3.10
2019-05-30T02:13:48.926Z,2.30
2019-05-30T02:16:19.037Z,2.85
2019-05-30T02:18:49.179Z,2.47
2019-05-30T02:21:21.411Z,3.05
2019-05-30T02:23:54.651Z,2.80
2019-05-30T02:26:25.118Z,2.85
2019-05-30T02:28:55.194Z,2.92
2019-05-30T02:31:38.336Z,3.37
2019-05-30T02:33:57.943Z,3.10
2019-05-30T02:36:28.012Z,3.20
2019-05-30T02:38:58.124Z,2.83
2019-05-30T02:41:28.164Z,2.77
2019-05-30T02:44:01.240Z,3.52
2019-05-30T02:46:34.419Z,3.87
2019-05-30T02:49:06.607Z,3.37
2019-05-30T02:51:36.357Z,3.10
2019-05-30T02:54:08.695Z,3.42
2019-05-30T02:56:38.246Z,3.25
2019-05-30T02:59:11.564Z,3.50
2019-05-30T03:01:58.996Z,3.47
2019-05-30T03:04:15.454Z,3.22
2019-05-30T03:06:45.731Z,3.05
2019-05-30T03:09:17.657Z,3.72
2019-05-30T03:11:48.251Z,3.40
2019-05-30T03:14:23.710Z,3.27
2019-05-30T03:16:54.468Z,3.35
2019-05-30T03:19:24.684Z,3.85
2019-05-30T03:21:55.668Z,3.52
2019-05-30T03:24:27.833Z,4.20
2019-05-30T03:26:57.916Z,3.55
2019-05-30T03:29:28.014Z,3.52
2019-05-30T03:32:38.953Z,3.50
2019-05-30T03:34:34.416Z,4.62
2019-05-30T03:37:08.568Z,3.95
2019-05-30T03:39:36.313Z,3.60
2019-05-30T03:42:07.495Z,3.52
2019-05-30T03:44:38.787Z,3.50
2019-05-30T03:47:15.491Z,3.62
2019-05-30T03:49:48.443Z,3.50
2019-05-30T03:52:23.206Z,3.30
2019-05-30T03:54:53.373Z,2.47
2019-05-30T03:57:28.234Z,3.45
2019-05-30T04:00:06.193Z,3.27
2019-05-30T04:02:59.702Z,2.90
2019-05-30T04:05:34.109Z,3.20
2019-05-30T04:08:09.050Z,2.70
2019-05-30T04:10:42.632Z,3.20
2019-05-30T04:13:21.658Z,3.47
2019-05-30T04:15:54.120Z,2.80
2019-05-30T04:18:28.159Z,3.10
2019-05-30T04:20:58.610Z,3.50
2019-05-30T04:23:28.814Z,2.80
2019-05-30T04:26:00.871Z,3.90
2019-05-30T04:28:31.577Z,2.65
2019-05-30T04:33:37.042Z,2.80
2019-05-30T04:36:08.422Z,2.80
2019-05-30T04:38:39.602Z,3.25
2019-05-30T04:41:11.206Z,3.62
2019-05-30T04:43:41.492Z,3.45
2019-05-30T04:46:13.972Z,3.30
2019-05-30T04:48:45.284Z,3.87
2019-05-30T04:51:19.585Z,3.80
2019-05-30T04:53:50.408Z,3.70
2019-05-30T04:56:24.112Z,3.90
2019-05-30T04:58:55.282Z,3.70
2019-05-30T05:01:29.494Z,5.10
2019-05-30T05:04:00.223Z,4.55
2019-05-30T05:06:35.619Z,6.30
2019-05-30T05:09:09.397Z,6.10
2019-05-30T05:11:39.867Z,5.37
2019-05-30T05:14:09.981Z,5.30
2019-05-30T05:16:40.261Z,4.90
2019-05-30T05:19:12.892Z,4.45
2019-05-30T05:21:43.362Z,5.75
2019-05-30T05:24:13.487Z,6.05
2019-05-30T05:26:44.812Z,5.12
2019-05-30T05:29:15.815Z,6.12
2019-05-30T05:31:49.839Z,6.00
2019-05-30T05:34:22.799Z,7.50
2019-05-30T05:36:55.887Z,7.90
2019-05-30T05:39:29.129Z,7.47
2019-05-30T05:42:00.021Z,6.97
2019-05-30T05:44:30.099Z,7.17
2019-05-30T05:47:00.176Z,8.00
2019-05-30T05:49:31.518Z,8.43
2019-05-30T05:52:01.881Z,9.28
2019-05-30T05:54:31.948Z,8.90
2019-05-30T05:57:02.224Z,8.28
2019-05-30T05:59:33.884Z,8.18
2019-05-30T06:02:06.217Z,6.55
2019-05-30T06:04:39.652Z,7.78
2019-05-30T06:07:09.779Z,7.30
2019-05-30T06:09:39.859Z,6.47
2019-05-30T06:12:10.737Z,7.12
2019-05-30T06:14:41.672Z,5.00
2019-05-30T06:17:13.979Z,6.62
2019-05-30T06:19:51.256Z,6.00
2019-05-30T06:22:21.851Z,5.90
2019-05-30T06:25:05.359Z,4.10
2019-05-30T06:27:37.503Z,4.60
2019-05-30T06:30:10.833Z,5.20
2019-05-30T06:32:44.291Z,5.30
2019-05-30T06:35:14.931Z,4.58
2019-05-30T06:37:45.028Z,4.78
2019-05-30T06:40:19.460Z,4.53
2019-05-30T06:42:49.712Z,4.75
2019-05-30T06:45:23.663Z,4.85
2019-05-30T06:47:55.465Z,4.62
2019-05-30T06:50:30.972Z,5.40
2019-05-30T06:53:03.454Z,4.87
2019-05-30T06:55:33.869Z,4.40
2019-05-30T06:58:04.693Z,6.10
2019-05-30T07:00:36.385Z,5.78
2019-05-30T07:03:06.736Z,6.55
2019-05-30T07:05:37.713Z,5.75
2019-05-30T07:08:08.277Z,5.78
2019-05-30T07:10:38.440Z,5.45
2019-05-30T07:13:09.092Z,5.05
2019-05-30T07:15:39.214Z,5.33
2019-05-30T07:18:09.686Z,5.10
2019-05-30T07:20:41.694Z,4.70
2019-05-30T07:23:12.076Z,4.05
2019-05-30T07:25:42.200Z,4.83
2019-05-30T07:28:13.259Z,4.47
2019-05-30T07:30:43.988Z,3.42
2019-05-30T07:33:16.160Z,4.53
2019-05-30T07:35:46.304Z,3.50
2019-05-30T07:38:17.500Z,4.47
2019-05-30T07:40:53.129Z,6.90
2019-05-30T07:43:25.390Z,3.90
2019-05-30T07:45:58.291Z,3.10
2019-05-30T07:48:30.094Z,3.20
2019-05-30T07:51:01.565Z,3.50
2019-05-30T07:53:34.981Z,2.90
2019-05-30T07:56:08.334Z,3.22
2019-05-30T07:58:38.464Z,2.22
2019-05-30T08:01:12.969Z,3.17
2019-05-30T08:03:43.115Z,1.90
2019-05-30T08:06:13.645Z,2.05
2019-05-30T08:08:45.940Z,1.05
2019-05-30T08:11:16.041Z,1.52
2019-05-30T08:13:50.806Z,1.40
2019-05-30T08:16:25.529Z,2.10
2019-05-30T08:18:56.913Z,2.52
2019-05-30T08:21:28.250Z,1.95
2019-05-30T08:24:02.339Z,2.27
2019-05-30T08:26:34.223Z,1.82
2019-05-30T08:29:04.655Z,1.70
2019-05-30T08:31:36.894Z,1.90
2019-05-30T08:34:14.017Z,1.90
2019-05-30T08:36:45.976Z,1.60
2019-05-30T08:39:16.976Z,1.82
2019-05-30T08:41:47.077Z,1.70
2019-05-30T08:44:17.485Z,1.50
2019-05-30T08:46:47.604Z,1.75
2019-05-30T08:49:17.969Z,2.00
2019-05-30T08:51:50.142Z,1.60
2019-05-30T08:54:20.609Z,1.45
2019-05-30T08:56:50.773Z,6.78
2019-05-30T08:59:20.934Z,1.30
2019-05-30T09:01:53.236Z,1.25
2019-05-30T09:04:23.829Z,1.32
2019-05-30T09:06:54.393Z,1.12
2019-05-30T09:09:24.525Z,1.70
2019-05-30T09:11:55.249Z,1.15
2019-05-30T09:14:27.051Z,1.05
2019-05-30T09:16:59.219Z,0.90
2019-05-30T09:19:29.295Z,0.95
2019-05-30T09:22:03.681Z,1.10
2019-05-30T09:24:33.887Z,0.78
2019-05-30T09:27:04.600Z,0.80
2019-05-30T09:29:35.123Z,0.90
2019-05-30T09:32:05.842Z,0.85
2019-05-30T09:34:38.530Z,0.70
2019-05-30T09:37:10.952Z,0.98
2019-05-30T09:39:41.677Z,1.10
2019-05-30T09:42:14.896Z,1.15
2019-05-30T09:44:50.987Z,0.70
2019-05-30T09:47:23.944Z,0.80
2019-05-30T09:49:55.504Z,0.95
2019-05-30T09:52:26.228Z,1.10
2019-05-30T09:54:56.725Z,0.93
2019-05-30T09:57:30.297Z,0.90
2019-05-30T10:00:00.865Z,0.80
2019-05-30T10:02:33.140Z,0.67
2019-05-30T10:05:07.522Z,0.63
2019-05-30T10:07:38.915Z,1.10
2019-05-30T10:10:11.010Z,1.03
2019-05-30T10:12:41.117Z,0.80
2019-05-30T10:15:12.028Z,0.87
2019-05-30T10:17:42.157Z,1.30
2019-05-30T10:20:13.193Z,1.27
2019-05-30T10:22:44.518Z,1.00
2019-05-30T10:25:15.852Z,0.80
2019-05-30T10:27:53.216Z,1.10
2019-05-30T10:30:24.342Z,1.03
2019-05-30T10:32:55.747Z,0.70
2019-05-30T10:35:29.629Z,1.03
2019-05-30T10:37:58.279Z,0.88
2019-05-30T10:40:32.052Z,0.70
2019-05-30T10:43:01.457Z,0.88
2019-05-30T10:45:31.971Z,1.00
2019-05-30T10:48:02.979Z,1.20
2019-05-30T10:50:35.213Z,1.05
2019-05-30T10:53:09.114Z,2.40
2019-05-30T10:55:41.075Z,0.95
2019-05-30T10:58:11.540Z,0.90
2019-05-30T11:00:55.568Z,1.20
2019-05-30T11:03:27.063Z,0.68
2019-05-30T11:06:08.657Z,0.70
2019-05-30T11:08:40.548Z,0.80
2019-05-30T11:11:11.065Z,0.93
2019-05-30T11:13:41.646Z,1.10
2019-05-30T11:16:13.218Z,0.72
2019-05-30T11:18:44.653Z,0.57
2019-05-30T11:21:14.719Z,0.90
2019-05-30T11:23:45.562Z,1.00
2019-05-30T11:26:16.083Z,0.87
2019-05-30T11:28:46.521Z,0.70
2019-05-30T11:31:18.329Z,0.83
2019-05-30T11:33:48.808Z,1.03
2019-05-30T11:36:19.440Z,0.67
2019-05-30T11:38:52.405Z,0.90
2019-05-30T11:41:22.840Z,0.87
2019-05-30T11:43:53.555Z,0.93
2019-05-30T11:46:25.336Z,1.00
2019-05-30T11:48:56.311Z,1.10
2019-05-30T11:51:26.434Z,0.93
2019-05-30T11:53:57.989Z,0.80
2019-05-30T11:56:28.224Z,1.70
2019-05-30T11:58:58.367Z,1.10
2019-05-30T12:01:28.459Z,1.10
2019-05-30T12:03:58.838Z,1.17
2019-05-30T12:06:28.944Z,0.60
2019-05-30T12:08:59.454Z,0.70
2019-05-30T12:11:29.532Z,0.70
2019-05-30T12:13:59.619Z,1.00
2019-05-30T12:16:29.734Z,0.93
2019-05-30T12:18:59.960Z,1.00
2019-05-30T12:21:30.111Z,1.17
2019-05-30T12:24:00.710Z,1.00
2019-05-30T12:26:33.826Z,1.13
2019-05-30T12:29:02.999Z,1.00
2019-05-30T12:31:33.421Z,0.90
2019-05-30T12:34:03.526Z,1.70
2019-05-30T12:36:33.580Z,0.90
2019-05-30T12:39:04.803Z,1.10
2019-05-30T12:41:35.277Z,0.80
2019-05-30T12:44:05.675Z,1.00
2019-05-30T12:46:36.138Z,1.03
2019-05-30T12:49:12.587Z,1.13
2019-05-30T12:51:48.671Z,0.90
2019-05-30T12:54:19.809Z,1.00
2019-05-30T12:56:50.945Z,1.10
2019-05-30T12:59:21.089Z,1.17
2019-05-30T13:01:51.886Z,1.50
2019-05-30T13:04:24.434Z,0.97
2019-05-30T13:06:59.370Z,1.40
2019-05-30T13:09:29.909Z,1.10
2019-05-30T13:12:12.847Z,0.73
2019-05-30T13:14:47.049Z,1.20
2019-05-30T13:17:19.148Z,1.17
2019-05-30T13:19:49.214Z,1.20
2019-05-30T13:22:20.788Z,1.00
2019-05-30T13:24:52.132Z,1.53
2019-05-30T13:27:24.299Z,1.17
2019-05-30T13:29:56.198Z,1.30
2019-05-30T13:32:29.883Z,1.57
2019-05-30T13:35:05.790Z,1.00
2019-05-30T13:37:39.943Z,1.10
2019-05-30T13:40:24.308Z,1.00
2019-05-30T13:42:46.821Z,1.33
2019-05-30T13:45:17.261Z,1.40
2019-05-30T13:47:48.703Z,1.17
2019-05-30T13:50:19.229Z,1.50
2019-05-30T13:52:49.310Z,2.10
2019-05-30T13:55:19.583Z,1.20
2019-05-30T13:57:49.678Z,1.23
2019-05-30T14:00:22.981Z,1.17
2019-05-30T14:02:55.183Z,1.43
2019-05-30T14:05:25.380Z,1.07
2019-05-30T14:07:56.541Z,0.87
2019-05-30T14:10:30.015Z,0.77
2019-05-30T14:13:00.746Z,1.37
2019-05-30T14:15:30.942Z,0.77
2019-05-30T14:18:07.238Z,1.30
2019-05-30T14:20:37.658Z,1.20
2019-05-30T14:23:07.847Z,2.00
2019-05-30T14:25:37.435Z,1.20
2019-05-30T14:28:07.831Z,1.80
2019-05-30T14:30:38.031Z,1.37
2019-05-30T14:33:08.510Z,1.03
2019-05-30T14:35:38.773Z,1.20
2019-05-30T14:38:08.937Z,1.30
2019-05-30T14:40:38.968Z,1.00
2019-05-30T14:43:09.927Z,1.37
2019-05-30T14:45:40.077Z,1.37
2019-05-30T14:48:10.625Z,1.27
2019-05-30T14:50:40.973Z,1.50
2019-05-30T14:53:11.261Z,1.13
2019-05-30T14:55:41.545Z,1.30
2019-05-30T14:58:11.728Z,1.13
2019-05-30T15:00:43.373Z,1.20
2019-05-30T15:03:15.852Z,1.20
2019-05-30T15:05:46.081Z,0.67
2019-05-30T15:08:18.253Z,1.10
2019-05-30T15:10:48.509Z,1.40
2019-05-30T15:13:18.775Z,1.20
2019-05-30T15:15:48.936Z,1.00
2019-05-30T15:18:20.016Z,1.00
2019-05-30T15:20:51.384Z,1.20
2019-05-30T15:23:21.658Z,1.30
2019-05-30T15:25:52.244Z,1.13
2019-05-30T15:28:22.875Z,1.30
2019-05-30T15:30:53.192Z,1.23
2019-05-30T15:33:23.422Z,1.40
2019-05-30T15:35:55.493Z,1.33
2019-05-30T15:38:25.596Z,1.13
2019-05-30T15:40:55.831Z,1.70
2019-05-30T15:43:25.925Z,1.57
2019-05-30T15:45:56.983Z,1.50
2019-05-30T15:48:27.072Z,1.37
2019-05-30T15:50:57.335Z,1.40
2019-05-30T15:53:27.413Z,1.50
2019-05-30T15:55:57.767Z,2.17
2019-05-30T15:58:28.828Z,1.50
2019-05-30T16:00:59.024Z,1.20
2019-05-30T16:03:29.246Z,1.40
2019-05-30T16:05:59.540Z,1.73
2019-05-30T16:08:30.152Z,2.20
2019-05-30T16:11:00.444Z,2.10
2019-05-30T16:13:30.685Z,1.83
2019-05-30T16:16:00.941Z,3.87
2019-05-30T16:18:31.421Z,1.90
2019-05-30T16:21:01.628Z,2.30
2019-05-30T16:23:33.779Z,1.40
2019-05-30T16:26:03.975Z,1.93
2019-05-30T16:28:34.981Z,1.67
2019-05-30T16:31:05.097Z,2.27
2019-05-30T16:33:37.973Z,3.87
2019-05-30T16:36:08.079Z,2.47
2019-05-30T16:38:38.199Z,1.77
2019-05-30T16:41:09.339Z,1.77
2019-05-30T16:43:40.273Z,2.63
2019-05-30T16:46:10.732Z,4.30
2019-05-30T16:48:40.970Z,2.23
2019-05-30T16:51:11.038Z,2.63
2019-05-30T16:53:41.386Z,1.60
2019-05-30T16:56:13.214Z,1.83
2019-05-30T16:58:43.377Z,2.20
2019-05-30T17:01:13.500Z,2.13
2019-05-30T17:03:43.660Z,1.70
2019-05-30T17:06:14.344Z,2.53
2019-05-30T17:08:44.430Z,1.30
2019-05-30T17:11:15.333Z,1.63
2019-05-30T17:13:45.609Z,1.73
2019-05-30T17:16:17.810Z,1.80
2019-05-30T17:18:48.022Z,1.80
2019-05-30T17:21:18.345Z,2.40
2019-05-30T17:23:49.064Z,1.80
2019-05-30T17:26:21.220Z,1.50
2019-05-30T17:28:51.529Z,2.30
2019-05-30T17:31:21.848Z,2.67
2019-05-30T17:33:53.155Z,2.50
2019-05-30T17:36:24.245Z,1.83
2019-05-30T17:38:54.416Z,1.40
2019-05-30T17:41:24.838Z,1.80
2019-05-30T17:43:54.983Z,2.20
2019-05-30T17:46:25.727Z,2.47
2019-05-30T17:48:55.994Z,2.03
2019-05-30T17:51:26.078Z,2.20
2019-05-30T17:53:56.284Z,2.50
2019-05-30T17:56:26.435Z,1.87
2019-05-30T17:58:56.555Z,2.80
2019-05-30T18:01:28.201Z,2.80
2019-05-30T18:04:01.893Z,2.33
2019-05-30T18:06:32.003Z,2.37
2019-05-30T18:09:23.098Z,2.40
2019-05-30T18:11:54.371Z,2.67
2019-05-30T18:14:25.088Z,3.90
2019-05-30T18:16:55.489Z,7.20
2019-05-30T18:19:27.275Z,5.53
2019-05-30T18:21:58.167Z,3.30
2019-05-30T18:24:35.770Z,2.93
2019-05-30T18:27:06.040Z,2.70
2019-05-30T18:29:36.182Z,2.30
2019-05-30T18:32:06.504Z,2.20
2019-05-30T18:34:36.797Z,3.30
2019-05-30T18:37:06.918Z,3.33
2019-05-30T18:39:37.000Z,3.00
2019-05-30T18:42:08.759Z,3.83
2019-05-30T18:44:39.235Z,4.07
2019-05-30T18:47:10.907Z,3.73
2019-05-30T18:49:41.174Z,3.10
2019-05-30T18:52:11.486Z,2.83
2019-05-30T18:54:43.161Z,3.33
2019-05-30T18:57:13.352Z,22.27
2019-05-30T18:59:43.449Z,3.40
2019-05-30T19:02:18.375Z,2.70
2019-05-30T19:04:47.713Z,2.40
2019-05-30T19:07:18.147Z,3.30
2019-05-30T19:09:48.272Z,3.47
2019-05-30T19:12:18.500Z,3.27
2019-05-30T19:14:51.553Z,3.22
2019-05-30T19:17:25.554Z,2.42
2019-05-30T19:19:56.344Z,2.80
2019-05-30T19:22:26.423Z,2.40
2019-05-30T19:24:56.874Z,2.67
2019-05-30T19:27:28.713Z,2.20
2019-05-30T19:29:59.651Z,2.20
2019-05-30T19:32:30.669Z,1.92
2019-05-30T19:35:01.064Z,2.13
2019-05-30T19:37:31.732Z,1.75
2019-05-30T19:40:03.742Z,2.33
2019-05-30T19:42:33.974Z,2.00
2019-05-30T19:45:07.625Z,2.00
2019-05-30T19:47:38.946Z,2.12
2019-05-30T19:50:11.278Z,2.00
2019-05-30T19:52:41.660Z,2.00
2019-05-30T19:55:12.943Z,2.17
2019-05-30T19:57:43.131Z,2.58
2019-05-30T20:00:16.266Z,3.40
2019-05-30T20:02:46.607Z,3.27
2019-05-30T20:05:18.545Z,3.00
2019-05-30T20:07:49.040Z,1.92
2019-05-30T20:10:19.809Z,1.98
2019-05-30T20:12:50.047Z,2.65
2019-05-30T20:15:22.409Z,2.40
2019-05-30T20:17:53.294Z,2.77
2019-05-30T20:20:23.765Z,2.37
2019-05-30T20:22:54.120Z,3.05
2019-05-30T20:25:24.981Z,3.05
2019-05-30T20:27:55.111Z,2.50
2019-05-30T20:30:25.267Z,2.52
2019-05-30T20:32:55.538Z,3.05
2019-05-30T20:35:25.798Z,2.40
2019-05-30T20:38:01.365Z,3.05
2019-05-30T20:40:32.280Z,2.65
2019-05-30T20:43:02.464Z,2.75
2019-05-30T20:45:38.351Z,2.85
2019-05-30T20:48:08.029Z,2.20
2019-05-30T20:50:39.656Z,3.00
2019-05-30T20:53:10.319Z,3.10
2019-05-30T20:55:40.503Z,3.55
2019-05-30T20:58:13.105Z,3.67
2019-05-30T21:00:45.854Z,2.65
2019-05-30T21:03:16.193Z,3.00
2019-05-30T21:05:48.106Z,2.90
2019-05-30T21:08:18.638Z,2.95
2019-05-30T21:10:50.476Z,2.90
2019-05-30T21:13:21.951Z,3.45
2019-05-30T21:15:54.085Z,3.05
2019-05-30T21:18:27.736Z,2.50
2019-05-30T21:20:58.055Z,2.83
2019-05-30T21:23:33.165Z,3.25
2019-05-30T21:26:03.464Z,2.80
2019-05-30T21:28:33.859Z,2.90
2019-05-30T21:31:04.292Z,2.10
2019-05-30T21:33:34.632Z,2.47
2019-05-30T21:36:11.109Z,2.15
2019-05-30T21:38:41.919Z,2.20
2019-05-30T21:41:12.589Z,2.55
2019-05-30T21:43:44.565Z,2.37
2019-05-30T21:46:17.046Z,2.20
2019-05-30T21:48:47.563Z,2.60
2019-05-30T21:51:17.769Z,2.40
2019-05-30T21:53:48.313Z,2.95
2019-05-30T21:56:18.647Z,2.70
2019-05-30T21:58:50.339Z,2.83
2019-05-30T22:01:34.165Z,2.55
2019-05-30T22:04:05.428Z,2.65
2019-05-30T22:06:37.845Z,3.12
2019-05-30T22:09:10.028Z,2.75
2019-05-30T22:11:43.764Z,2.50
2019-05-30T22:14:14.845Z,2.10
2019-05-30T22:16:45.920Z,2.50
2019-05-30T22:19:21.179Z,2.67
2019-05-30T22:21:52.341Z,2.40
2019-05-30T22:24:23.479Z,1.95
2019-05-30T22:26:53.912Z,2.42
2019-05-30T22:29:24.323Z,2.55
2019-05-30T22:31:54.677Z,2.70
2019-05-30T22:34:24.984Z,2.70
2019-05-30T22:36:55.299Z,2.87
2019-05-30T22:39:25.868Z,2.80
2019-05-30T22:41:56.442Z,2.45
2019-05-30T22:44:26.865Z,2.45
2019-05-30T22:46:57.087Z,2.45
2019-05-30T22:49:27.276Z,2.20
2019-05-30T22:51:57.407Z,2.00
2019-05-30T22:54:27.529Z,3.00
2019-05-30T22:57:01.049Z,2.58
2019-05-30T22:59:29.431Z,2.60
2019-05-30T23:01:59.720Z,2.20
2019-05-30T23:04:29.801Z,2.35
2019-05-30T23:06:59.910Z,2.80
2019-05-30T23:09:30.002Z,2.70
2019-05-30T23:12:00.119Z,3.12
2019-05-30T23:14:30.254Z,2.50
2019-05-30T23:17:00.445Z,2.45
2019-05-30T23:19:32.669Z,2.60
2019-05-30T23:22:02.828Z,2.45
2019-05-30T23:24:32.935Z,2.80
2019-05-30T23:27:03.050Z,3.00
2019-05-30T23:29:33.115Z,3.55
2019-05-30T23:32:03.391Z,3.00
2019-05-30T23:34:33.470Z,2.65
2019-05-30T23:37:03.608Z,2.10
2019-05-30T23:39:33.955Z,3.20
2019-05-30T23:42:04.067Z,2.90
2019-05-30T23:44:34.342Z,3.08
2019-05-30T23:47:04.507Z,2.35
2019-05-30T23:49:34.652Z,3.17
2019-05-30T23:52:04.730Z,3.15
2019-05-30T23:54:34.831Z,3.20
2019-05-30T23:57:04.894Z,2.87
2019-05-30T23:59:35.057Z,2.87
